Aviation Digital Data Service (ADDS)

Output produced by METARs form (0748 UTC 24 May 2018)
found at http://www.aviationweather.gov/adds/metars/
 
OBBI 240730Z 34004KT 270V030 CAVOK 37/12 Q1007 NOSIG
TAF OBBI 240500Z 2406/2512 VRB05KT CAVOK